sensor_id;sensor_type;location;lat;lon;timestamp;P1;durP1;ratioP1;P2;durP2;ratioP2
25531;SDS011;13429;48.816;9.118;2024-03-02T00:00:20;13.10;;;9.07;;
25531;SDS011;13429;48.816;9.118;2024-03-02T00:02:47;17.25;;;11.75;;
25531;SDS011;13429;48.816;9.118;2024-03-02T00:08:05;17.10;;;10.45;;
25531;SDS011;13429;48.816;9.118;2024-03-02T00:10:37;12.18;;;8.80;;
25531;SDS011;13429;48.816;9.118;2024-03-02T00:13:05;13.25;;;9.68;;
25531;SDS011;13429;48.816;9.118;2024-03-02T00:15:42;12.77;;;9.07;;
25531;SDS011;13429;48.816;9.118;2024-03-02T00:18:13;12.10;;;9.60;;
25531;SDS011;13429;48.816;9.118;2024-03-02T00:20:44;17.17;;;11.50;;
25531;SDS011;13429;48.816;9.118;2024-03-02T00:23:10;14.20;;;9.68;;
25531;SDS011;13429;48.816;9.118;2024-03-02T00:25:43;13.88;;;9.23;;
25531;SDS011;13429;48.816;9.118;2024-03-02T00:28:33;14.45;;;10.00;;
25531;SDS011;13429;48.816;9.118;2024-03-02T00:31:04;13.95;;;9.27;;
25531;SDS011;13429;48.816;9.118;2024-03-02T00:33:31;13.77;;;9.10;;
25531;SDS011;13429;48.816;9.118;2024-03-02T00:35:58;15.00;;;10.05;;
25531;SDS011;13429;48.816;9.118;2024-03-02T00:38:25;13.95;;;10.25;;
25531;SDS011;13429;48.816;9.118;2024-03-02T00:40:51;16.38;;;10.80;;
25531;SDS011;13429;48.816;9.118;2024-03-02T00:46:04;15.23;;;10.27;;
25531;SDS011;13429;48.816;9.118;2024-03-02T00:48:31;16.52;;;9.38;;
25531;SDS011;13429;48.816;9.118;2024-03-02T00:50:57;12.95;;;9.13;;
25531;SDS011;13429;48.816;9.118;2024-03-02T00:53:23;13.98;;;9.30;;
25531;SDS011;13429;48.816;9.118;2024-03-02T00:55:51;15.98;;;10.07;;
25531;SDS011;13429;48.816;9.118;2024-03-02T00:58:17;15.82;;;10.40;;
25531;SDS011;13429;48.816;9.118;2024-03-02T01:00:42;12.07;;;7.90;;
25531;SDS011;13429;48.816;9.118;2024-03-02T01:03:08;15.40;;;10.20;;
25531;SDS011;13429;48.816;9.118;2024-03-02T01:05:35;14.52;;;10.73;;
25531;SDS011;13429;48.816;9.118;2024-03-02T01:08:01;14.95;;;9.80;;
25531;SDS011;13429;48.816;9.118;2024-03-02T01:10:27;13.82;;;9.38;;
25531;SDS011;13429;48.816;9.118;2024-03-02T01:12:52;16.25;;;10.43;;
25531;SDS011;13429;48.816;9.118;2024-03-02T01:15:18;15.85;;;10.63;;
25531;SDS011;13429;48.816;9.118;2024-03-02T01:17:44;19.42;;;10.57;;
25531;SDS011;13429;48.816;9.118;2024-03-02T01:20:10;14.85;;;9.88;;
25531;SDS011;13429;48.816;9.118;2024-03-02T01:22:36;14.13;;;9.45;;
25531;SDS011;13429;48.816;9.118;2024-03-02T01:25:02;14.70;;;9.60;;
25531;SDS011;13429;48.816;9.118;2024-03-02T01:27:28;17.92;;;10.55;;
25531;SDS011;13429;48.816;9.118;2024-03-02T01:29:54;14.30;;;9.63;;
25531;SDS011;13429;48.816;9.118;2024-03-02T01:32:19;16.58;;;12.10;;
25531;SDS011;13429;48.816;9.118;2024-03-02T01:34:45;16.67;;;10.43;;
25531;SDS011;13429;48.816;9.118;2024-03-02T01:37:11;16.52;;;10.90;;
25531;SDS011;13429;48.816;9.118;2024-03-02T01:39:36;14.02;;;9.57;;
25531;SDS011;13429;48.816;9.118;2024-03-02T01:42:02;13.32;;;8.20;;
25531;SDS011;13429;48.816;9.118;2024-03-02T01:44:28;16.48;;;10.95;;
25531;SDS011;13429;48.816;9.118;2024-03-02T01:46:54;16.05;;;9.48;;
25531;SDS011;13429;48.816;9.118;2024-03-02T01:49:19;13.20;;;9.02;;
25531;SDS011;13429;48.816;9.118;2024-03-02T01:51:45;16.25;;;11.05;;
25531;SDS011;13429;48.816;9.118;2024-03-02T01:54:11;17.00;;;11.40;;
25531;SDS011;13429;48.816;9.118;2024-03-02T01:56:36;14.93;;;10.57;;
25531;SDS011;13429;48.816;9.118;2024-03-02T01:59:02;16.60;;;11.02;;
25531;SDS011;13429;48.816;9.118;2024-03-02T02:01:28;20.40;;;12.57;;
25531;SDS011;13429;48.816;9.118;2024-03-02T02:03:54;20.10;;;11.95;;
25531;SDS011;13429;48.816;9.118;2024-03-02T02:06:20;14.57;;;10.52;;
25531;SDS011;13429;48.816;9.118;2024-03-02T02:08:46;16.73;;;10.93;;
25531;SDS011;13429;48.816;9.118;2024-03-02T02:11:14;22.75;;;12.82;;
25531;SDS011;13429;48.816;9.118;2024-03-02T02:13:40;19.05;;;11.75;;
25531;SDS011;13429;48.816;9.118;2024-03-02T02:16:06;18.95;;;12.38;;
25531;SDS011;13429;48.816;9.118;2024-03-02T02:18:33;19.58;;;12.18;;
25531;SDS011;13429;48.816;9.118;2024-03-02T02:20:58;21.85;;;13.55;;
25531;SDS011;13429;48.816;9.118;2024-03-02T02:23:24;17.38;;;12.20;;
25531;SDS011;13429;48.816;9.118;2024-03-02T02:25:50;24.00;;;14.35;;
25531;SDS011;13429;48.816;9.118;2024-03-02T02:28:16;20.73;;;13.02;;
25531;SDS011;13429;48.816;9.118;2024-03-02T02:30:42;17.13;;;11.63;;
25531;SDS011;13429;48.816;9.118;2024-03-02T02:33:08;20.63;;;13.10;;
25531;SDS011;13429;48.816;9.118;2024-03-02T02:35:34;19.13;;;13.30;;
25531;SDS011;13429;48.816;9.118;2024-03-02T02:37:59;19.50;;;11.85;;
25531;SDS011;13429;48.816;9.118;2024-03-02T02:40:26;20.13;;;12.63;;
25531;SDS011;13429;48.816;9.118;2024-03-02T02:42:54;21.13;;;13.05;;
25531;SDS011;13429;48.816;9.118;2024-03-02T02:45:20;18.70;;;11.70;;
25531;SDS011;13429;48.816;9.118;2024-03-02T02:47:45;21.48;;;13.43;;
25531;SDS011;13429;48.816;9.118;2024-03-02T02:50:11;20.23;;;12.90;;
25531;SDS011;13429;48.816;9.118;2024-03-02T02:52:38;20.02;;;13.32;;
25531;SDS011;13429;48.816;9.118;2024-03-02T02:55:06;26.17;;;14.57;;
25531;SDS011;13429;48.816;9.118;2024-03-02T02:57:33;21.73;;;13.27;;
25531;SDS011;13429;48.816;9.118;2024-03-02T03:00:07;22.75;;;14.32;;
25531;SDS011;13429;48.816;9.118;2024-03-02T03:02:40;21.77;;;13.75;;
25531;SDS011;13429;48.816;9.118;2024-03-02T03:05:13;22.25;;;13.85;;
25531;SDS011;13429;48.816;9.118;2024-03-02T03:07:40;26.08;;;14.93;;
25531;SDS011;13429;48.816;9.118;2024-03-02T03:10:06;24.00;;;12.70;;
25531;SDS011;13429;48.816;9.118;2024-03-02T03:12:33;22.83;;;14.52;;
25531;SDS011;13429;48.816;9.118;2024-03-02T03:14:59;22.05;;;14.35;;
25531;SDS011;13429;48.816;9.118;2024-03-02T03:17:25;24.52;;;16.10;;
25531;SDS011;13429;48.816;9.118;2024-03-02T03:19:51;24.55;;;15.80;;
25531;SDS011;13429;48.816;9.118;2024-03-02T03:22:16;25.15;;;15.27;;
25531;SDS011;13429;48.816;9.118;2024-03-02T03:24:42;23.13;;;14.25;;
25531;SDS011;13429;48.816;9.118;2024-03-02T03:27:08;27.58;;;15.90;;
25531;SDS011;13429;48.816;9.118;2024-03-02T03:29:35;26.92;;;15.63;;
25531;SDS011;13429;48.816;9.118;2024-03-02T03:32:01;24.35;;;14.75;;
25531;SDS011;13429;48.816;9.118;2024-03-02T03:34:27;25.58;;;15.23;;
25531;SDS011;13429;48.816;9.118;2024-03-02T03:36:54;24.98;;;15.48;;
25531;SDS011;13429;48.816;9.118;2024-03-02T03:39:19;25.50;;;15.15;;
25531;SDS011;13429;48.816;9.118;2024-03-02T03:41:45;23.77;;;13.95;;
25531;SDS011;13429;48.816;9.118;2024-03-02T03:44:11;24.20;;;15.35;;
25531;SDS011;13429;48.816;9.118;2024-03-02T03:46:36;25.70;;;15.32;;
25531;SDS011;13429;48.816;9.118;2024-03-02T03:49:02;26.02;;;15.48;;
25531;SDS011;13429;48.816;9.118;2024-03-02T03:51:28;30.70;;;16.75;;
25531;SDS011;13429;48.816;9.118;2024-03-02T03:53:55;25.15;;;15.60;;
25531;SDS011;13429;48.816;9.118;2024-03-02T03:56:21;25.77;;;15.23;;
25531;SDS011;13429;48.816;9.118;2024-03-02T03:58:46;24.35;;;16.45;;
25531;SDS011;13429;48.816;9.118;2024-03-02T04:01:13;31.38;;;16.50;;
25531;SDS011;13429;48.816;9.118;2024-03-02T04:03:39;21.88;;;13.90;;
25531;SDS011;13429;48.816;9.118;2024-03-02T04:06:04;23.67;;;13.68;;
25531;SDS011;13429;48.816;9.118;2024-03-02T04:08:30;29.67;;;15.00;;
25531;SDS011;13429;48.816;9.118;2024-03-02T04:10:55;25.95;;;15.35;;
25531;SDS011;13429;48.816;9.118;2024-03-02T04:13:21;21.02;;;13.45;;
25531;SDS011;13429;48.816;9.118;2024-03-02T04:15:47;24.13;;;13.75;;
25531;SDS011;13429;48.816;9.118;2024-03-02T04:18:12;25.00;;;14.73;;
25531;SDS011;13429;48.816;9.118;2024-03-02T04:20:38;21.70;;;13.63;;
25531;SDS011;13429;48.816;9.118;2024-03-02T04:23:03;23.38;;;13.65;;
25531;SDS011;13429;48.816;9.118;2024-03-02T04:25:29;22.42;;;12.93;;
25531;SDS011;13429;48.816;9.118;2024-03-02T04:27:55;23.90;;;13.60;;
25531;SDS011;13429;48.816;9.118;2024-03-02T04:30:20;23.63;;;14.75;;
25531;SDS011;13429;48.816;9.118;2024-03-02T04:32:46;26.92;;;14.57;;
25531;SDS011;13429;48.816;9.118;2024-03-02T04:35:12;23.52;;;14.10;;
25531;SDS011;13429;48.816;9.118;2024-03-02T04:37:38;27.33;;;14.75;;
25531;SDS011;13429;48.816;9.118;2024-03-02T04:40:04;29.02;;;15.60;;
25531;SDS011;13429;48.816;9.118;2024-03-02T04:42:33;26.92;;;15.43;;
25531;SDS011;13429;48.816;9.118;2024-03-02T04:44:59;26.55;;;15.40;;
25531;SDS011;13429;48.816;9.118;2024-03-02T04:47:25;24.13;;;14.35;;
25531;SDS011;13429;48.816;9.118;2024-03-02T04:49:51;26.55;;;14.82;;
25531;SDS011;13429;48.816;9.118;2024-03-02T04:52:16;25.65;;;14.15;;
25531;SDS011;13429;48.816;9.118;2024-03-02T04:54:42;23.85;;;13.80;;
25531;SDS011;13429;48.816;9.118;2024-03-02T04:57:26;20.13;;;12.65;;
25531;SDS011;13429;48.816;9.118;2024-03-02T04:59:52;24.92;;;13.95;;
25531;SDS011;13429;48.816;9.118;2024-03-02T05:02:18;23.67;;;12.85;;
25531;SDS011;13429;48.816;9.118;2024-03-02T05:04:43;19.40;;;11.68;;
25531;SDS011;13429;48.816;9.118;2024-03-02T05:07:09;23.48;;;12.80;;
25531;SDS011;13429;48.816;9.118;2024-03-02T05:09:35;20.60;;;12.73;;
25531;SDS011;13429;48.816;9.118;2024-03-02T05:12:01;25.30;;;15.18;;
25531;SDS011;13429;48.816;9.118;2024-03-02T05:14:54;25.00;;;13.45;;
25531;SDS011;13429;48.816;9.118;2024-03-02T05:17:20;24.02;;;14.43;;
25531;SDS011;13429;48.816;9.118;2024-03-02T05:19:45;27.25;;;15.02;;
25531;SDS011;13429;48.816;9.118;2024-03-02T05:22:11;26.10;;;14.02;;
25531;SDS011;13429;48.816;9.118;2024-03-02T05:24:37;25.10;;;15.02;;
25531;SDS011;13429;48.816;9.118;2024-03-02T05:27:02;23.08;;;13.77;;
25531;SDS011;13429;48.816;9.118;2024-03-02T05:29:28;22.70;;;13.75;;
25531;SDS011;13429;48.816;9.118;2024-03-02T05:31:53;27.73;;;15.25;;
25531;SDS011;13429;48.816;9.118;2024-03-02T05:34:19;28.67;;;15.40;;
25531;SDS011;13429;48.816;9.118;2024-03-02T05:36:44;27.70;;;15.77;;
25531;SDS011;13429;48.816;9.118;2024-03-02T05:39:10;22.42;;;13.85;;
25531;SDS011;13429;48.816;9.118;2024-03-02T05:41:36;22.52;;;13.15;;
25531;SDS011;13429;48.816;9.118;2024-03-02T05:44:03;23.88;;;13.27;;
25531;SDS011;13429;48.816;9.118;2024-03-02T05:46:29;22.23;;;13.02;;
25531;SDS011;13429;48.816;9.118;2024-03-02T05:48:54;23.20;;;13.55;;
25531;SDS011;13429;48.816;9.118;2024-03-02T05:51:20;25.58;;;13.77;;
25531;SDS011;13429;48.816;9.118;2024-03-02T05:53:45;26.70;;;15.60;;
25531;SDS011;13429;48.816;9.118;2024-03-02T05:56:11;24.08;;;14.65;;
25531;SDS011;13429;48.816;9.118;2024-03-02T05:58:37;22.92;;;13.63;;
25531;SDS011;13429;48.816;9.118;2024-03-02T06:01:21;22.58;;;13.70;;
25531;SDS011;13429;48.816;9.118;2024-03-02T06:03:53;24.92;;;15.00;;
25531;SDS011;13429;48.816;9.118;2024-03-02T06:06:21;24.83;;;14.80;;
25531;SDS011;13429;48.816;9.118;2024-03-02T06:08:47;27.30;;;14.20;;
25531;SDS011;13429;48.816;9.118;2024-03-02T06:11:13;23.50;;;14.55;;
25531;SDS011;13429;48.816;9.118;2024-03-02T06:13:39;24.58;;;12.77;;
25531;SDS011;13429;48.816;9.118;2024-03-02T06:16:04;21.48;;;13.55;;
25531;SDS011;13429;48.816;9.118;2024-03-02T06:18:30;25.73;;;14.13;;
25531;SDS011;13429;48.816;9.118;2024-03-02T06:20:56;25.48;;;15.15;;
25531;SDS011;13429;48.816;9.118;2024-03-02T06:23:21;25.13;;;14.35;;
25531;SDS011;13429;48.816;9.118;2024-03-02T06:25:47;26.00;;;14.05;;
25531;SDS011;13429;48.816;9.118;2024-03-02T06:28:12;27.40;;;15.63;;
25531;SDS011;13429;48.816;9.118;2024-03-02T06:30:40;27.85;;;14.90;;
25531;SDS011;13429;48.816;9.118;2024-03-02T06:33:07;26.83;;;14.75;;
25531;SDS011;13429;48.816;9.118;2024-03-02T06:35:32;22.90;;;12.60;;
25531;SDS011;13429;48.816;9.118;2024-03-02T06:37:58;24.50;;;13.50;;
25531;SDS011;13429;48.816;9.118;2024-03-02T06:40:24;22.38;;;13.95;;
25531;SDS011;13429;48.816;9.118;2024-03-02T06:42:49;24.25;;;14.00;;
25531;SDS011;13429;48.816;9.118;2024-03-02T06:45:15;20.48;;;12.88;;
25531;SDS011;13429;48.816;9.118;2024-03-02T06:47:40;23.42;;;14.15;;
25531;SDS011;13429;48.816;9.118;2024-03-02T06:50:06;24.52;;;14.20;;
25531;SDS011;13429;48.816;9.118;2024-03-02T06:52:32;21.98;;;13.05;;
25531;SDS011;13429;48.816;9.118;2024-03-02T06:54:57;26.00;;;14.70;;
25531;SDS011;13429;48.816;9.118;2024-03-02T06:57:23;27.15;;;14.85;;
25531;SDS011;13429;48.816;9.118;2024-03-02T06:59:49;25.85;;;14.43;;
25531;SDS011;13429;48.816;9.118;2024-03-02T07:02:16;25.40;;;15.30;;
25531;SDS011;13429;48.816;9.118;2024-03-02T07:04:42;19.30;;;13.23;;
25531;SDS011;13429;48.816;9.118;2024-03-02T07:07:07;21.67;;;12.90;;
25531;SDS011;13429;48.816;9.118;2024-03-02T07:09:33;20.27;;;13.07;;
25531;SDS011;13429;48.816;9.118;2024-03-02T07:11:59;19.30;;;11.95;;
25531;SDS011;13429;48.816;9.118;2024-03-02T07:14:24;18.27;;;11.68;;
25531;SDS011;13429;48.816;9.118;2024-03-02T07:17:10;17.13;;;10.30;;
25531;SDS011;13429;48.816;9.118;2024-03-02T07:19:35;19.63;;;11.40;;
25531;SDS011;13429;48.816;9.118;2024-03-02T07:22:05;15.90;;;10.32;;
25531;SDS011;13429;48.816;9.118;2024-03-02T07:24:32;18.38;;;12.18;;
25531;SDS011;13429;48.816;9.118;2024-03-02T07:26:57;15.18;;;10.20;;
25531;SDS011;13429;48.816;9.118;2024-03-02T07:29:23;15.63;;;11.07;;
25531;SDS011;13429;48.816;9.118;2024-03-02T07:31:49;13.35;;;9.82;;
25531;SDS011;13429;48.816;9.118;2024-03-02T07:34:14;16.73;;;11.02;;
25531;SDS011;13429;48.816;9.118;2024-03-02T07:36:40;13.25;;;9.00;;
25531;SDS011;13429;48.816;9.118;2024-03-02T07:39:06;15.10;;;9.70;;
25531;SDS011;13429;48.816;9.118;2024-03-02T07:41:32;13.05;;;8.95;;
25531;SDS011;13429;48.816;9.118;2024-03-02T07:43:58;13.75;;;9.07;;
25531;SDS011;13429;48.816;9.118;2024-03-02T07:46:23;13.45;;;8.70;;
25531;SDS011;13429;48.816;9.118;2024-03-02T07:48:49;12.05;;;7.55;;
25531;SDS011;13429;48.816;9.118;2024-03-02T07:51:16;12.77;;;8.45;;
25531;SDS011;13429;48.816;9.118;2024-03-02T07:53:42;12.63;;;8.20;;
25531;SDS011;13429;48.816;9.118;2024-03-02T07:56:08;14.38;;;8.43;;
25531;SDS011;13429;48.816;9.118;2024-03-02T07:58:33;14.15;;;8.50;;
25531;SDS011;13429;48.816;9.118;2024-03-02T08:01:00;12.25;;;7.78;;
25531;SDS011;13429;48.816;9.118;2024-03-02T08:03:26;9.02;;;6.55;;
25531;SDS011;13429;48.816;9.118;2024-03-02T08:05:52;11.48;;;8.30;;
25531;SDS011;13429;48.816;9.118;2024-03-02T08:08:18;12.43;;;8.07;;
25531;SDS011;13429;48.816;9.118;2024-03-02T08:10:43;13.85;;;8.27;;
25531;SDS011;13429;48.816;9.118;2024-03-02T08:13:09;10.70;;;7.40;;
25531;SDS011;13429;48.816;9.118;2024-03-02T08:15:34;12.32;;;8.30;;
25531;SDS011;13429;48.816;9.118;2024-03-02T08:18:00;12.05;;;7.88;;
25531;SDS011;13429;48.816;9.118;2024-03-02T08:20:26;12.02;;;8.40;;
25531;SDS011;13429;48.816;9.118;2024-03-02T08:22:52;11.57;;;7.57;;
25531;SDS011;13429;48.816;9.118;2024-03-02T08:25:20;12.15;;;7.55;;
25531;SDS011;13429;48.816;9.118;2024-03-02T08:27:46;9.90;;;7.18;;
25531;SDS011;13429;48.816;9.118;2024-03-02T08:30:11;11.85;;;7.32;;
25531;SDS011;13429;48.816;9.118;2024-03-02T08:32:37;10.05;;;7.38;;
25531;SDS011;13429;48.816;9.118;2024-03-02T08:35:03;10.30;;;7.07;;
25531;SDS011;13429;48.816;9.118;2024-03-02T08:37:30;11.20;;;7.97;;
25531;SDS011;13429;48.816;9.118;2024-03-02T08:39:55;9.45;;;6.13;;
25531;SDS011;13429;48.816;9.118;2024-03-02T08:42:21;11.20;;;8.18;;
25531;SDS011;13429;48.816;9.118;2024-03-02T08:44:47;10.52;;;7.38;;
25531;SDS011;13429;48.816;9.118;2024-03-02T08:47:13;11.02;;;7.53;;
25531;SDS011;13429;48.816;9.118;2024-03-02T08:49:38;12.73;;;8.68;;
25531;SDS011;13429;48.816;9.118;2024-03-02T08:52:04;13.32;;;7.82;;
25531;SDS011;13429;48.816;9.118;2024-03-02T08:54:30;10.90;;;8.15;;
25531;SDS011;13429;48.816;9.118;2024-03-02T08:56:56;9.90;;;6.72;;
25531;SDS011;13429;48.816;9.118;2024-03-02T09:02:44;10.48;;;6.90;;
25531;SDS011;13429;48.816;9.118;2024-03-02T09:05:10;8.80;;;6.28;;
25531;SDS011;13429;48.816;9.118;2024-03-02T09:07:36;9.60;;;6.72;;
25531;SDS011;13429;48.816;9.118;2024-03-02T09:10:03;7.43;;;5.30;;
25531;SDS011;13429;48.816;9.118;2024-03-02T09:12:30;6.90;;;5.00;;
25531;SDS011;13429;48.816;9.118;2024-03-02T09:14:55;7.07;;;5.03;;
25531;SDS011;13429;48.816;9.118;2024-03-02T09:17:22;8.27;;;4.85;;
25531;SDS011;13429;48.816;9.118;2024-03-02T09:19:48;7.60;;;4.85;;
25531;SDS011;13429;48.816;9.118;2024-03-02T09:22:13;6.93;;;4.60;;
25531;SDS011;13429;48.816;9.118;2024-03-02T09:24:39;7.43;;;4.32;;
25531;SDS011;13429;48.816;9.118;2024-03-02T09:27:04;5.22;;;3.88;;
25531;SDS011;13429;48.816;9.118;2024-03-02T09:29:30;4.10;;;3.33;;
25531;SDS011;13429;48.816;9.118;2024-03-02T09:31:56;7.53;;;3.88;;
25531;SDS011;13429;48.816;9.118;2024-03-02T09:34:22;5.50;;;3.88;;
25531;SDS011;13429;48.816;9.118;2024-03-02T09:36:47;5.55;;;4.20;;
25531;SDS011;13429;48.816;9.118;2024-03-02T09:39:13;5.70;;;3.72;;
25531;SDS011;13429;48.816;9.118;2024-03-02T09:41:39;5.95;;;3.55;;
25531;SDS011;13429;48.816;9.118;2024-03-02T09:44:05;5.68;;;4.15;;
25531;SDS011;13429;48.816;9.118;2024-03-02T09:46:31;5.35;;;4.00;;
25531;SDS011;13429;48.816;9.118;2024-03-02T09:48:57;4.47;;;3.50;;
25531;SDS011;13429;48.816;9.118;2024-03-02T09:51:23;4.57;;;3.30;;
25531;SDS011;13429;48.816;9.118;2024-03-02T09:53:49;4.88;;;3.45;;
25531;SDS011;13429;48.816;9.118;2024-03-02T09:56:15;5.90;;;3.00;;
25531;SDS011;13429;48.816;9.118;2024-03-02T09:58:41;4.70;;;3.35;;
25531;SDS011;13429;48.816;9.118;2024-03-02T10:01:07;3.90;;;2.75;;
25531;SDS011;13429;48.816;9.118;2024-03-02T10:03:35;4.65;;;3.40;;
25531;SDS011;13429;48.816;9.118;2024-03-02T10:08:46;4.35;;;2.42;;
25531;SDS011;13429;48.816;9.118;2024-03-02T10:14:10;5.13;;;3.45;;
25531;SDS011;13429;48.816;9.118;2024-03-02T10:16:38;3.38;;;2.58;;
25531;SDS011;13429;48.816;9.118;2024-03-02T10:19:14;3.90;;;2.80;;
25531;SDS011;13429;48.816;9.118;2024-03-02T10:21:48;3.47;;;2.85;;
25531;SDS011;13429;48.816;9.118;2024-03-02T10:24:15;3.42;;;2.60;;
25531;SDS011;13429;48.816;9.118;2024-03-02T10:26:41;3.65;;;2.10;;
25531;SDS011;13429;48.816;9.118;2024-03-02T10:29:09;4.53;;;2.95;;
25531;SDS011;13429;48.816;9.118;2024-03-02T10:31:39;4.10;;;2.72;;
25531;SDS011;13429;48.816;9.118;2024-03-02T10:34:06;4.15;;;2.75;;
25531;SDS011;13429;48.816;9.118;2024-03-02T10:36:36;5.70;;;2.60;;
25531;SDS011;13429;48.816;9.118;2024-03-02T10:39:05;5.78;;;3.40;;
25531;SDS011;13429;48.816;9.118;2024-03-02T10:41:35;5.38;;;2.65;;
25531;SDS011;13429;48.816;9.118;2024-03-02T10:44:03;3.33;;;2.42;;
25531;SDS011;13429;48.816;9.118;2024-03-02T10:46:31;4.40;;;3.35;;
25531;SDS011;13429;48.816;9.118;2024-03-02T10:48:58;4.55;;;3.58;;
25531;SDS011;13429;48.816;9.118;2024-03-02T10:51:25;6.80;;;5.18;;
25531;SDS011;13429;48.816;9.118;2024-03-02T10:53:54;5.43;;;4.30;;
25531;SDS011;13429;48.816;9.118;2024-03-02T10:56:53;4.97;;;4.07;;
25531;SDS011;13429;48.816;9.118;2024-03-02T10:59:24;5.90;;;4.05;;
25531;SDS011;13429;48.816;9.118;2024-03-02T11:01:59;5.55;;;3.70;;
25531;SDS011;13429;48.816;9.118;2024-03-02T11:04:26;3.25;;;2.40;;
25531;SDS011;13429;48.816;9.118;2024-03-02T11:06:58;4.18;;;2.58;;
25531;SDS011;13429;48.816;9.118;2024-03-02T11:09:29;3.90;;;2.53;;
25531;SDS011;13429;48.816;9.118;2024-03-02T11:12:06;3.53;;;2.33;;
25531;SDS011;13429;48.816;9.118;2024-03-02T11:14:40;2.47;;;1.90;;
25531;SDS011;13429;48.816;9.118;2024-03-02T11:17:09;2.78;;;2.00;;
25531;SDS011;13429;48.816;9.118;2024-03-02T11:19:38;2.90;;;2.10;;
25531;SDS011;13429;48.816;9.118;2024-03-02T11:22:05;3.03;;;2.08;;
25531;SDS011;13429;48.816;9.118;2024-03-02T11:24:32;5.68;;;2.20;;
25531;SDS011;13429;48.816;9.118;2024-03-02T11:26:58;3.95;;;3.20;;
25531;SDS011;13429;48.816;9.118;2024-03-02T11:32:15;4.25;;;2.72;;
25531;SDS011;13429;48.816;9.118;2024-03-02T11:34:47;4.13;;;2.90;;
25531;SDS011;13429;48.816;9.118;2024-03-02T11:37:17;3.85;;;3.00;;
25531;SDS011;13429;48.816;9.118;2024-03-02T11:39:48;3.58;;;2.30;;
25531;SDS011;13429;48.816;9.118;2024-03-02T11:42:15;4.13;;;2.30;;
25531;SDS011;13429;48.816;9.118;2024-03-02T11:44:42;3.55;;;2.70;;
25531;SDS011;13429;48.816;9.118;2024-03-02T11:47:10;3.25;;;2.70;;
25531;SDS011;13429;48.816;9.118;2024-03-02T11:52:19;4.38;;;2.15;;
25531;SDS011;13429;48.816;9.118;2024-03-02T11:54:47;2.80;;;1.90;;
25531;SDS011;13429;48.816;9.118;2024-03-02T11:57:20;2.85;;;1.77;;
25531;SDS011;13429;48.816;9.118;2024-03-02T11:59:48;2.78;;;1.83;;
25531;SDS011;13429;48.816;9.118;2024-03-02T12:02:20;2.92;;;2.38;;
25531;SDS011;13429;48.816;9.118;2024-03-02T12:04:48;3.40;;;2.25;;
25531;SDS011;13429;48.816;9.118;2024-03-02T12:07:20;2.10;;;1.60;;
25531;SDS011;13429;48.816;9.118;2024-03-02T12:09:47;2.97;;;2.03;;
25531;SDS011;13429;48.816;9.118;2024-03-02T12:12:13;4.15;;;1.70;;
25531;SDS011;13429;48.816;9.118;2024-03-02T12:14:52;1.70;;;1.10;;
25531;SDS011;13429;48.816;9.118;2024-03-02T12:17:20;2.63;;;1.55;;
25531;SDS011;13429;48.816;9.118;2024-03-02T12:19:47;1.70;;;1.00;;
25531;SDS011;13429;48.816;9.118;2024-03-02T12:22:13;1.80;;;1.27;;
25531;SDS011;13429;48.816;9.118;2024-03-02T12:24:40;4.00;;;0.77;;
25531;SDS011;13429;48.816;9.118;2024-03-02T12:27:06;1.20;;;0.50;;
25531;SDS011;13429;48.816;9.118;2024-03-02T12:29:32;1.58;;;0.60;;
25531;SDS011;13429;48.816;9.118;2024-03-02T12:31:59;0.90;;;0.47;;
25531;SDS011;13429;48.816;9.118;2024-03-02T12:34:26;0.82;;;0.50;;
25531;SDS011;13429;48.816;9.118;2024-03-02T12:36:52;2.63;;;0.50;;
25531;SDS011;13429;48.816;9.118;2024-03-02T12:39:21;1.08;;;0.50;;
25531;SDS011;13429;48.816;9.118;2024-03-02T12:41:50;1.17;;;0.47;;
25531;SDS011;13429;48.816;9.118;2024-03-02T12:44:19;0.93;;;0.47;;
25531;SDS011;13429;48.816;9.118;2024-03-02T12:46:45;1.00;;;0.47;;
25531;SDS011;13429;48.816;9.118;2024-03-02T12:49:12;0.77;;;0.50;;
25531;SDS011;13429;48.816;9.118;2024-03-02T12:51:41;1.40;;;0.63;;
25531;SDS011;13429;48.816;9.118;2024-03-02T12:54:10;1.10;;;0.60;;
25531;SDS011;13429;48.816;9.118;2024-03-02T12:56:40;1.00;;;0.70;;
25531;SDS011;13429;48.816;9.118;2024-03-02T12:59:10;0.95;;;0.60;;
25531;SDS011;13429;48.816;9.118;2024-03-02T13:01:53;1.02;;;0.57;;
25531;SDS011;13429;48.816;9.118;2024-03-02T13:04:25;1.63;;;0.77;;
25531;SDS011;13429;48.816;9.118;2024-03-02T13:06:51;0.90;;;0.70;;
25531;SDS011;13429;48.816;9.118;2024-03-02T13:09:18;1.73;;;0.70;;
25531;SDS011;13429;48.816;9.118;2024-03-02T13:11:44;2.20;;;0.82;;
25531;SDS011;13429;48.816;9.118;2024-03-02T13:14:10;0.80;;;0.60;;
25531;SDS011;13429;48.816;9.118;2024-03-02T13:16:42;0.82;;;0.60;;
25531;SDS011;13429;48.816;9.118;2024-03-02T13:19:11;2.53;;;0.90;;
25531;SDS011;13429;48.816;9.118;2024-03-02T13:21:37;1.58;;;0.80;;
25531;SDS011;13429;48.816;9.118;2024-03-02T13:24:03;1.30;;;0.90;;
25531;SDS011;13429;48.816;9.118;2024-03-02T13:26:29;0.75;;;0.65;;
25531;SDS011;13429;48.816;9.118;2024-03-02T13:28:55;2.35;;;1.05;;
25531;SDS011;13429;48.816;9.118;2024-03-02T13:31:21;1.25;;;0.95;;
25531;SDS011;13429;48.816;9.118;2024-03-02T13:33:47;1.80;;;1.00;;
25531;SDS011;13429;48.816;9.118;2024-03-02T13:36:13;3.67;;;1.30;;
25531;SDS011;13429;48.816;9.118;2024-03-02T13:38:38;1.60;;;1.10;;
25531;SDS011;13429;48.816;9.118;2024-03-02T13:41:04;1.05;;;0.80;;
25531;SDS011;13429;48.816;9.118;2024-03-02T13:43:30;3.72;;;1.17;;
25531;SDS011;13429;48.816;9.118;2024-03-02T13:46:00;1.55;;;1.00;;
25531;SDS011;13429;48.816;9.118;2024-03-02T13:48:28;1.23;;;0.90;;
25531;SDS011;13429;48.816;9.118;2024-03-02T13:50:54;1.67;;;1.00;;
25531;SDS011;13429;48.816;9.118;2024-03-02T13:53:20;1.92;;;1.17;;
25531;SDS011;13429;48.816;9.118;2024-03-02T13:55:45;2.28;;;1.23;;
25531;SDS011;13429;48.816;9.118;2024-03-02T13:58:11;1.45;;;0.98;;
25531;SDS011;13429;48.816;9.118;2024-03-02T14:00:37;1.90;;;0.90;;
25531;SDS011;13429;48.816;9.118;2024-03-02T14:03:04;2.28;;;0.90;;
25531;SDS011;13429;48.816;9.118;2024-03-02T14:05:31;1.50;;;1.02;;
25531;SDS011;13429;48.816;9.118;2024-03-02T14:07:57;1.70;;;1.20;;
25531;SDS011;13429;48.816;9.118;2024-03-02T14:10:24;1.70;;;1.30;;
25531;SDS011;13429;48.816;9.118;2024-03-02T14:12:49;1.98;;;1.08;;
25531;SDS011;13429;48.816;9.118;2024-03-02T14:15:15;1.88;;;0.80;;
25531;SDS011;13429;48.816;9.118;2024-03-02T14:17:40;4.82;;;1.25;;
25531;SDS011;13429;48.816;9.118;2024-03-02T14:20:07;2.03;;;1.13;;
25531;SDS011;13429;48.816;9.118;2024-03-02T14:22:35;2.63;;;1.10;;
25531;SDS011;13429;48.816;9.118;2024-03-02T14:25:02;1.73;;;0.80;;
25531;SDS011;13429;48.816;9.118;2024-03-02T14:27:28;4.35;;;1.35;;
25531;SDS011;13429;48.816;9.118;2024-03-02T14:29:54;2.33;;;0.90;;
25531;SDS011;13429;48.816;9.118;2024-03-02T14:32:20;1.27;;;0.90;;
25531;SDS011;13429;48.816;9.118;2024-03-02T14:34:45;1.30;;;0.80;;
25531;SDS011;13429;48.816;9.118;2024-03-02T14:37:12;1.30;;;0.80;;
25531;SDS011;13429;48.816;9.118;2024-03-02T14:39:38;1.30;;;0.80;;
25531;SDS011;13429;48.816;9.118;2024-03-02T14:42:04;1.45;;;0.80;;
25531;SDS011;13429;48.816;9.118;2024-03-02T14:44:30;1.40;;;1.00;;
25531;SDS011;13429;48.816;9.118;2024-03-02T14:46:56;2.95;;;1.10;;
25531;SDS011;13429;48.816;9.118;2024-03-02T14:49:23;1.70;;;1.20;;
25531;SDS011;13429;48.816;9.118;2024-03-02T14:51:51;1.55;;;0.90;;